createdAt,value
2022-10-31T00:04:29.209Z,66.93
2022-10-31T00:14:33.708Z,66.75
2022-10-31T00:24:36.839Z,67.02
2022-10-31T00:34:41.354Z,67.31
2022-10-31T00:44:44.466Z,67.20
2022-10-31T00:54:48.960Z,67.54
2022-10-31T01:04:52.159Z,67.53
2022-10-31T01:14:56.720Z,67.33
2022-10-31T01:24:59.858Z,68.80
2022-10-31T01:35:04.661Z,68.29
2022-10-31T01:45:12.086Z,68.04
2022-10-31T01:55:19.198Z,68.81
2022-10-31T02:05:23.860Z,68.63
2022-10-31T02:15:29.270Z,68.40
2022-10-31T02:25:53.463Z,68.39
2022-10-31T02:36:04.955Z,68.59
2022-10-31T02:46:12.488Z,68.57
2022-10-31T02:56:19.716Z,68.79
2022-10-31T03:06:27.144Z,68.73
2022-10-31T03:16:39.043Z,69.27
2022-10-31T03:26:45.866Z,68.92
2022-10-31T03:36:52.779Z,68.48
2022-10-31T03:46:56.025Z,69.10
2022-10-31T03:57:03.117Z,68.81
2022-10-31T04:07:06.631Z,69.00
2022-10-31T04:17:13.789Z,69.21
2022-10-31T04:27:16.887Z,69.89
2022-10-31T04:37:21.370Z,70.12
2022-10-31T04:47:24.815Z,70.63
2022-10-31T04:57:29.261Z,69.83
2022-10-31T05:07:32.384Z,70.22
2022-10-31T05:17:36.970Z,70.48
2022-10-31T05:27:41.783Z,71.88
2022-10-31T05:37:46.341Z,71.15
2022-10-31T05:47:53.114Z,70.48
2022-10-31T05:57:58.216Z,72.40
2022-10-31T06:08:02.229Z,72.62
2022-10-31T06:18:08.217Z,71.34
2022-10-31T06:28:11.283Z,71.61
2022-10-31T06:38:15.738Z,71.17
2022-10-31T06:48:18.942Z,70.56
2022-10-31T06:58:23.462Z,70.46
2022-10-31T07:08:26.811Z,70.25
2022-10-31T07:18:31.404Z,70.35
2022-10-31T07:28:34.705Z,70.03
2022-10-31T07:38:39.230Z,70.21
2022-10-31T07:48:42.946Z,69.50
2022-10-31T07:58:47.627Z,69.23
2022-10-31T08:08:51.063Z,69.21
2022-10-31T08:18:56.608Z,69.34
2022-10-31T08:28:59.658Z,69.57
2022-10-31T08:39:04.654Z,70.77
2022-10-31T08:49:07.780Z,69.67
2022-10-31T08:59:12.269Z,71.32
2022-10-31T09:09:15.358Z,70.61
2022-10-31T09:19:20.182Z,69.52
2022-10-31T09:29:23.301Z,68.91
2022-10-31T09:39:27.695Z,68.40
2022-10-31T09:49:41.015Z,68.08
2022-10-31T09:59:46.846Z,68.08
2022-10-31T10:09:50.039Z,67.79
2022-10-31T10:20:11.677Z,71.14
2022-10-31T10:30:16.835Z,68.75
2022-10-31T10:40:23.572Z,67.91
2022-10-31T10:50:33.692Z,67.81
2022-10-31T11:00:40.841Z,67.41
2022-10-31T11:10:43.987Z,67.26
2022-10-31T11:20:53.778Z,66.78
2022-10-31T11:30:58.501Z,66.64
2022-10-31T11:41:12.593Z,67.30
2022-10-31T11:51:22.776Z,66.85
2022-10-31T12:01:29.239Z,68.59
2022-10-31T12:11:45.379Z,70.11
2022-10-31T12:21:59.290Z,69.14
2022-10-31T12:32:17.353Z,67.64
2022-10-31T12:42:30.328Z,70.39
2022-10-31T12:52:46.120Z,67.74
2022-10-31T13:02:54.070Z,66.74
2022-10-31T13:13:01.406Z,66.84
2022-10-31T13:23:23.817Z,66.78
2022-10-31T13:33:37.452Z,67.85
2022-10-31T13:43:54.504Z,66.04
2022-10-31T13:54:02.223Z,66.19
2022-10-31T14:04:15.651Z,65.64
2022-10-31T14:14:22.018Z,66.17
2022-10-31T14:24:39.139Z,65.67
2022-10-31T14:34:43.911Z,66.30
2022-10-31T14:45:23.052Z,65.95
2022-10-31T14:55:27.061Z,65.65
2022-10-31T15:05:32.335Z,66.81
2022-10-31T15:15:36.183Z,70.11
2022-10-31T15:25:40.697Z,72.97
2022-10-31T15:35:44.051Z,71.55
2022-10-31T15:45:48.838Z,72.44
2022-10-31T15:55:54.071Z,69.66
2022-10-31T16:05:59.792Z,71.97
2022-10-31T16:16:33.046Z,69.89
2022-10-31T16:26:29.075Z,71.78
2022-10-31T16:36:36.575Z,69.10
2022-10-31T16:46:41.133Z,74.78
2022-10-31T16:56:44.466Z,73.61
2022-10-31T17:06:48.961Z,77.20
2022-10-31T17:16:52.172Z,75.70
2022-10-31T17:26:57.045Z,71.96
2022-10-31T17:37:00.199Z,72.05
2022-10-31T17:47:04.629Z,73.01
2022-10-31T17:57:07.737Z,70.20
2022-10-31T18:07:12.487Z,70.04
2022-10-31T18:17:15.760Z,69.72
2022-10-31T18:27:20.343Z,70.11
2022-10-31T18:37:23.444Z,69.90
2022-10-31T18:47:27.956Z,70.27
2022-10-31T18:57:31.302Z,69.53
2022-10-31T19:07:35.835Z,69.70
2022-10-31T19:17:39.036Z,72.26
2022-10-31T19:27:43.834Z,72.18
2022-10-31T19:37:47.584Z,71.38
2022-10-31T19:47:52.421Z,70.59
2022-10-31T19:58:01.846Z,70.74
2022-10-31T20:08:07.189Z,70.71
2022-10-31T20:18:10.295Z,70.00
2022-10-31T20:28:15.382Z,69.81
2022-10-31T20:38:18.541Z,69.76
2022-10-31T20:48:24.824Z,69.93
2022-10-31T20:58:28.086Z,70.30
2022-10-31T21:08:33.350Z,70.14
2022-10-31T21:18:37.047Z,69.59
2022-10-31T21:28:41.549Z,70.67
2022-10-31T21:38:44.694Z,70.31
2022-10-31T21:48:49.533Z,70.11
2022-10-31T21:58:53.052Z,70.12
2022-10-31T22:08:59.310Z,70.02
2022-10-31T22:19:05.907Z,73.21
2022-10-31T22:29:14.269Z,70.83
2022-10-31T22:39:17.390Z,71.62
2022-10-31T22:49:21.872Z,70.75
2022-10-31T22:59:25.076Z,70.01
2022-10-31T23:09:30.005Z,70.64
2022-10-31T23:19:33.124Z,71.28
2022-10-31T23:29:40.591Z,70.33
2022-10-31T23:39:43.814Z,69.72
2022-10-31T23:49:48.331Z,70.02
2022-10-31T23:59:51.436Z,70.18
